sensor_id;sensor_type;location;lat;lon;timestamp;pressure;altitude;pressure_sealevel;temperature;humidity
79285;BME280;68734;50.452;11.636;2023-05-31T00:01:10;96265.47;;;7.75;70.35
79285;BME280;68734;50.452;11.636;2023-05-31T00:03:36;96269.22;;;7.74;70.83
79285;BME280;68734;50.452;11.636;2023-05-31T00:06:06;96264.50;;;7.69;71.04
79285;BME280;68734;50.452;11.636;2023-05-31T00:08:32;96268.56;;;7.60;70.88
79285;BME280;68734;50.452;11.636;2023-05-31T00:10:57;96260.78;;;7.52;71.65
79285;BME280;68734;50.452;11.636;2023-05-31T00:13:22;96256.53;;;7.44;72.18
79285;BME280;68734;50.452;11.636;2023-05-31T00:15:48;96250.47;;;7.49;71.72
79285;BME280;68734;50.452;11.636;2023-05-31T00:18:14;96250.03;;;7.52;71.29
79285;BME280;68734;50.452;11.636;2023-05-31T00:20:39;96254.94;;;7.73;70.84
79285;BME280;68734;50.452;11.636;2023-05-31T00:23:05;96252.34;;;7.67;70.88
79285;BME280;68734;50.452;11.636;2023-05-31T00:25:30;96256.16;;;7.59;71.24
79285;BME280;68734;50.452;11.636;2023-05-31T00:27:56;96252.56;;;7.47;71.67
79285;BME280;68734;50.452;11.636;2023-05-31T00:30:22;96267.06;;;7.46;72.06
79285;BME280;68734;50.452;11.636;2023-05-31T00:32:50;96258.84;;;7.41;71.86
79285;BME280;68734;50.452;11.636;2023-05-31T00:35:16;96264.03;;;7.35;72.82
79285;BME280;68734;50.452;11.636;2023-05-31T00:37:42;96262.72;;;7.26;72.50
79285;BME280;68734;50.452;11.636;2023-05-31T00:40:07;96261.97;;;7.74;70.93
79285;BME280;68734;50.452;11.636;2023-05-31T00:42:33;96257.78;;;7.78;70.43
79285;BME280;68734;50.452;11.636;2023-05-31T00:44:59;96262.56;;;7.76;70.02
79285;BME280;68734;50.452;11.636;2023-05-31T00:47:25;96272.66;;;7.63;71.25
79285;BME280;68734;50.452;11.636;2023-05-31T00:49:54;96263.31;;;7.47;71.31
79285;BME280;68734;50.452;11.636;2023-05-31T00:52:21;96266.31;;;7.38;71.68
79285;BME280;68734;50.452;11.636;2023-05-31T00:54:47;96264.75;;;7.68;70.97
79285;BME280;68734;50.452;11.636;2023-05-31T00:57:12;96261.81;;;7.69;71.24
79285;BME280;68734;50.452;11.636;2023-05-31T00:59:38;96252.47;;;7.53;71.01
79285;BME280;68734;50.452;11.636;2023-05-31T01:02:04;96255.56;;;7.38;71.30
79285;BME280;68734;50.452;11.636;2023-05-31T01:04:30;96257.56;;;7.25;72.84
79285;BME280;68734;50.452;11.636;2023-05-31T01:06:56;96264.53;;;7.07;72.92
79285;BME280;68734;50.452;11.636;2023-05-31T01:09:23;96262.19;;;6.92;73.73
79285;BME280;68734;50.452;11.636;2023-05-31T01:15:13;96261.06;;;6.82;74.28
79285;BME280;68734;50.452;11.636;2023-05-31T01:20:14;96254.53;;;6.71;74.85
79285;BME280;68734;50.452;11.636;2023-05-31T01:28:09;96256.53;;;6.50;74.95
79285;BME280;68734;50.452;11.636;2023-05-31T01:30:37;96263.31;;;6.53;75.38
79285;BME280;68734;50.452;11.636;2023-05-31T01:33:09;96256.81;;;6.42;75.51
79285;BME280;68734;50.452;11.636;2023-05-31T01:35:35;96269.00;;;6.38;74.96
79285;BME280;68734;50.452;11.636;2023-05-31T01:38:01;96261.38;;;6.35;75.28
79285;BME280;68734;50.452;11.636;2023-05-31T01:40:26;96258.97;;;6.27;75.38
79285;BME280;68734;50.452;11.636;2023-05-31T01:42:52;96262.34;;;6.15;75.13
79285;BME280;68734;50.452;11.636;2023-05-31T01:45:18;96250.38;;;6.11;76.06
79285;BME280;68734;50.452;11.636;2023-05-31T01:47:46;96263.19;;;6.09;76.51
79285;BME280;68734;50.452;11.636;2023-05-31T01:50:13;96259.13;;;6.00;76.73
79285;BME280;68734;50.452;11.636;2023-05-31T01:52:39;96251.72;;;5.89;77.13
79285;BME280;68734;50.452;11.636;2023-05-31T01:55:06;96261.66;;;5.82;77.83
79285;BME280;68734;50.452;11.636;2023-05-31T01:57:33;96251.34;;;5.78;77.76
79285;BME280;68734;50.452;11.636;2023-05-31T02:00:01;96254.22;;;5.77;77.96
79285;BME280;68734;50.452;11.636;2023-05-31T02:02:32;96255.06;;;5.77;77.83
79285;BME280;68734;50.452;11.636;2023-05-31T02:05:08;96248.25;;;5.82;77.44
79285;BME280;68734;50.452;11.636;2023-05-31T02:07:40;96258.38;;;5.79;77.62
79285;BME280;68734;50.452;11.636;2023-05-31T02:10:06;96263.72;;;5.79;77.76
79285;BME280;68734;50.452;11.636;2023-05-31T02:12:32;96263.13;;;5.77;78.25
79285;BME280;68734;50.452;11.636;2023-05-31T02:14:57;96266.81;;;5.76;77.67
79285;BME280;68734;50.452;11.636;2023-05-31T02:17:25;96261.28;;;5.71;78.11
79285;BME280;68734;50.452;11.636;2023-05-31T02:19:52;96268.88;;;5.74;77.56
79285;BME280;68734;50.452;11.636;2023-05-31T02:22:18;96272.00;;;5.71;78.24
79285;BME280;68734;50.452;11.636;2023-05-31T02:24:44;96263.38;;;5.69;78.61
79285;BME280;68734;50.452;11.636;2023-05-31T02:27:13;96261.50;;;5.70;77.80
79285;BME280;68734;50.452;11.636;2023-05-31T02:29:38;96258.78;;;5.76;79.18
79285;BME280;68734;50.452;11.636;2023-05-31T02:32:04;96266.66;;;5.71;78.64
79285;BME280;68734;50.452;11.636;2023-05-31T02:34:30;96264.59;;;5.67;78.58
79285;BME280;68734;50.452;11.636;2023-05-31T02:36:57;96257.59;;;5.59;77.92
79285;BME280;68734;50.452;11.636;2023-05-31T02:39:23;96260.47;;;5.64;78.20
79285;BME280;68734;50.452;11.636;2023-05-31T02:41:49;96262.09;;;5.65;78.84
79285;BME280;68734;50.452;11.636;2023-05-31T02:44:14;96266.25;;;5.61;79.03
79285;BME280;68734;50.452;11.636;2023-05-31T02:46:40;96254.13;;;5.52;79.21
79285;BME280;68734;50.452;11.636;2023-05-31T02:49:05;96254.75;;;5.54;78.65
79285;BME280;68734;50.452;11.636;2023-05-31T02:51:33;96261.75;;;5.55;78.28
79285;BME280;68734;50.452;11.636;2023-05-31T02:53:59;96262.97;;;5.59;78.24
79285;BME280;68734;50.452;11.636;2023-05-31T02:56:24;96252.25;;;5.59;78.15
79285;BME280;68734;50.452;11.636;2023-05-31T02:58:51;96259.66;;;5.57;78.35
79285;BME280;68734;50.452;11.636;2023-05-31T03:01:16;96265.03;;;5.57;78.04
79285;BME280;68734;50.452;11.636;2023-05-31T03:03:42;96258.44;;;5.53;77.68
79285;BME280;68734;50.452;11.636;2023-05-31T03:06:07;96257.00;;;5.57;78.07
79285;BME280;68734;50.452;11.636;2023-05-31T03:08:33;96259.66;;;5.64;78.01
79285;BME280;68734;50.452;11.636;2023-05-31T03:10:58;96258.81;;;5.63;77.72
79285;BME280;68734;50.452;11.636;2023-05-31T03:13:23;96262.97;;;5.59;77.33
79285;BME280;68734;50.452;11.636;2023-05-31T03:15:49;96266.69;;;5.58;77.16
79285;BME280;68734;50.452;11.636;2023-05-31T03:18:15;96260.50;;;5.51;77.46
79285;BME280;68734;50.452;11.636;2023-05-31T03:20:40;96273.09;;;5.50;77.49
79285;BME280;68734;50.452;11.636;2023-05-31T03:23:06;96252.72;;;5.43;77.62
79285;BME280;68734;50.452;11.636;2023-05-31T03:25:32;96268.78;;;5.49;77.82
79285;BME280;68734;50.452;11.636;2023-05-31T03:27:58;96264.25;;;5.50;77.96
79285;BME280;68734;50.452;11.636;2023-05-31T03:30:24;96261.75;;;5.55;77.45
79285;BME280;68734;50.452;11.636;2023-05-31T03:32:49;96263.19;;;6.09;75.96
79285;BME280;68734;50.452;11.636;2023-05-31T03:35:16;96256.19;;;6.72;73.37
79285;BME280;68734;50.452;11.636;2023-05-31T03:37:41;96262.63;;;7.33;70.39
79285;BME280;68734;50.452;11.636;2023-05-31T03:40:10;96260.38;;;7.85;68.76
79285;BME280;68734;50.452;11.636;2023-05-31T03:42:35;96259.31;;;8.35;66.88
79285;BME280;68734;50.452;11.636;2023-05-31T03:45:01;96258.44;;;8.95;64.52
79285;BME280;68734;50.452;11.636;2023-05-31T03:47:27;96255.97;;;9.41;63.55
79285;BME280;68734;50.452;11.636;2023-05-31T03:49:52;96252.75;;;9.79;62.20
79285;BME280;68734;50.452;11.636;2023-05-31T03:52:18;96256.22;;;10.32;60.82
79285;BME280;68734;50.452;11.636;2023-05-31T03:54:43;96253.94;;;10.86;58.33
79285;BME280;68734;50.452;11.636;2023-05-31T03:57:09;96255.25;;;11.56;56.35
79285;BME280;68734;50.452;11.636;2023-05-31T03:59:37;96251.25;;;11.98;54.99
79285;BME280;68734;50.452;11.636;2023-05-31T04:02:03;96267.22;;;12.22;53.74
79285;BME280;68734;50.452;11.636;2023-05-31T04:04:28;96258.78;;;12.67;53.10
79285;BME280;68734;50.452;11.636;2023-05-31T04:06:54;96260.06;;;12.92;51.76
79285;BME280;68734;50.452;11.636;2023-05-31T04:09:20;96257.00;;;13.53;49.84
79285;BME280;68734;50.452;11.636;2023-05-31T04:11:45;96246.44;;;14.04;48.84
79285;BME280;68734;50.452;11.636;2023-05-31T04:14:13;96253.03;;;14.29;48.41
79285;BME280;68734;50.452;11.636;2023-05-31T04:16:39;96248.47;;;14.50;47.74
79285;BME280;68734;50.452;11.636;2023-05-31T04:19:04;96257.00;;;14.94;46.90
79285;BME280;68734;50.452;11.636;2023-05-31T04:21:29;96248.25;;;15.54;45.44
79285;BME280;68734;50.452;11.636;2023-05-31T04:23:58;96252.03;;;15.79;44.64
79285;BME280;68734;50.452;11.636;2023-05-31T04:26:23;96252.94;;;16.29;44.02
79285;BME280;68734;50.452;11.636;2023-05-31T04:28:50;96259.75;;;16.81;42.31
79285;BME280;68734;50.452;11.636;2023-05-31T04:31:19;96267.59;;;16.93;42.46
79285;BME280;68734;50.452;11.636;2023-05-31T04:33:44;96258.88;;;17.25;41.65
79285;BME280;68734;50.452;11.636;2023-05-31T04:36:10;96263.50;;;17.30;41.33
79285;BME280;68734;50.452;11.636;2023-05-31T04:38:35;96260.94;;;17.09;40.07
79285;BME280;68734;50.452;11.636;2023-05-31T04:41:02;96259.28;;;17.43;41.32
79285;BME280;68734;50.452;11.636;2023-05-31T04:43:28;96262.72;;;17.83;40.01
79285;BME280;68734;50.452;11.636;2023-05-31T04:45:54;96255.50;;;17.97;36.08
79285;BME280;68734;50.452;11.636;2023-05-31T04:48:21;96255.91;;;18.09;39.46
79285;BME280;68734;50.452;11.636;2023-05-31T04:50:47;96263.63;;;16.70;39.61
79285;BME280;68734;50.452;11.636;2023-05-31T04:53:15;96265.81;;;17.47;37.51
79285;BME280;68734;50.452;11.636;2023-05-31T04:55:40;96257.84;;;18.28;38.79
79285;BME280;68734;50.452;11.636;2023-05-31T04:58:06;96268.78;;;18.28;36.22
79285;BME280;68734;50.452;11.636;2023-05-31T05:00:33;96267.06;;;18.13;38.54
79285;BME280;68734;50.452;11.636;2023-05-31T05:02:59;96268.66;;;17.31;39.28
79285;BME280;68734;50.452;11.636;2023-05-31T05:05:26;96279.66;;;17.21;39.22
79285;BME280;68734;50.452;11.636;2023-05-31T05:07:52;96278.81;;;18.13;39.36
79285;BME280;68734;50.452;11.636;2023-05-31T05:10:17;96276.53;;;18.21;37.24
79285;BME280;68734;50.452;11.636;2023-05-31T05:12:43;96280.75;;;17.84;38.72
79285;BME280;68734;50.452;11.636;2023-05-31T05:15:08;96273.84;;;17.91;39.12
79285;BME280;68734;50.452;11.636;2023-05-31T05:17:35;96272.06;;;18.06;38.00
79285;BME280;68734;50.452;11.636;2023-05-31T05:20:02;96272.84;;;18.54;37.04
79285;BME280;68734;50.452;11.636;2023-05-31T05:22:30;96273.38;;;18.76;35.17
79285;BME280;68734;50.452;11.636;2023-05-31T05:24:56;96281.59;;;19.46;35.80
79285;BME280;68734;50.452;11.636;2023-05-31T05:27:21;96284.13;;;18.48;36.54
79285;BME280;68734;50.452;11.636;2023-05-31T05:29:47;96284.19;;;20.03;35.06
79285;BME280;68734;50.452;11.636;2023-05-31T05:32:12;96276.44;;;19.78;34.96
79285;BME280;68734;50.452;11.636;2023-05-31T05:34:38;96281.25;;;20.27;35.11
79285;BME280;68734;50.452;11.636;2023-05-31T05:37:07;96285.63;;;20.15;34.34
79285;BME280;68734;50.452;11.636;2023-05-31T05:39:33;96287.84;;;20.12;34.43
79285;BME280;68734;50.452;11.636;2023-05-31T05:41:58;96285.41;;;20.52;33.15
79285;BME280;68734;50.452;11.636;2023-05-31T05:44:24;96278.81;;;20.67;34.28
79285;BME280;68734;50.452;11.636;2023-05-31T05:46:49;96273.19;;;20.72;33.55
79285;BME280;68734;50.452;11.636;2023-05-31T05:49:15;96279.31;;;20.00;34.04
79285;BME280;68734;50.452;11.636;2023-05-31T05:51:40;96288.94;;;19.51;35.14
79285;BME280;68734;50.452;11.636;2023-05-31T05:54:06;96282.53;;;19.75;35.46
79285;BME280;68734;50.452;11.636;2023-05-31T05:56:31;96292.00;;;20.79;32.94
79285;BME280;68734;50.452;11.636;2023-05-31T05:58:57;96295.50;;;22.29;31.46
79285;BME280;68734;50.452;11.636;2023-05-31T06:01:22;96287.38;;;23.95;28.57
79285;BME280;68734;50.452;11.636;2023-05-31T06:03:52;96289.72;;;23.23;28.32
79285;BME280;68734;50.452;11.636;2023-05-31T06:06:18;96295.53;;;21.52;30.62
79285;BME280;68734;50.452;11.636;2023-05-31T06:08:45;96290.81;;;21.08;31.70
79285;BME280;68734;50.452;11.636;2023-05-31T06:11:10;96298.56;;;21.96;30.33
79285;BME280;68734;50.452;11.636;2023-05-31T06:13:36;96300.09;;;22.11;30.83
79285;BME280;68734;50.452;11.636;2023-05-31T06:16:04;96294.81;;;22.23;30.63
79285;BME280;68734;50.452;11.636;2023-05-31T06:18:32;96294.06;;;21.32;31.19
79285;BME280;68734;50.452;11.636;2023-05-31T06:20:58;96287.84;;;20.40;33.02
79285;BME280;68734;50.452;11.636;2023-05-31T06:23:24;96287.84;;;20.68;33.32
79285;BME280;68734;50.452;11.636;2023-05-31T06:25:49;96282.97;;;20.51;32.98
79285;BME280;68734;50.452;11.636;2023-05-31T06:28:15;96293.91;;;20.92;32.15
79285;BME280;68734;50.452;11.636;2023-05-31T06:30:40;96287.16;;;20.99;31.93
79285;BME280;68734;50.452;11.636;2023-05-31T06:33:07;96289.69;;;20.45;33.83
79285;BME280;68734;50.452;11.636;2023-05-31T06:35:32;96280.03;;;20.33;33.89
79285;BME280;68734;50.452;11.636;2023-05-31T06:38:00;96285.75;;;21.01;32.35
79285;BME280;68734;50.452;11.636;2023-05-31T06:40:29;96282.97;;;21.38;31.67
79285;BME280;68734;50.452;11.636;2023-05-31T06:42:54;96288.25;;;21.48;30.49
79285;BME280;68734;50.452;11.636;2023-05-31T06:45:20;96280.84;;;21.80;31.08
79285;BME280;68734;50.452;11.636;2023-05-31T06:47:45;96284.38;;;20.76;30.64
79285;BME280;68734;50.452;11.636;2023-05-31T06:50:14;96283.34;;;19.23;31.37
79285;BME280;68734;50.452;11.636;2023-05-31T06:52:43;96278.31;;;17.82;35.28
79285;BME280;68734;50.452;11.636;2023-05-31T06:55:09;96269.91;;;17.73;34.92
79285;BME280;68734;50.452;11.636;2023-05-31T06:57:34;96275.03;;;17.56;36.18
79285;BME280;68734;50.452;11.636;2023-05-31T07:00:00;96280.38;;;17.66;38.04
79285;BME280;68734;50.452;11.636;2023-05-31T07:02:27;96272.44;;;17.35;36.54
79285;BME280;68734;50.452;11.636;2023-05-31T07:04:54;96273.78;;;17.04;36.43
79285;BME280;68734;50.452;11.636;2023-05-31T07:07:19;96267.84;;;16.97;36.45
79285;BME280;68734;50.452;11.636;2023-05-31T07:09:45;96280.72;;;17.25;37.70
79285;BME280;68734;50.452;11.636;2023-05-31T07:12:10;96279.03;;;17.00;36.29
79285;BME280;68734;50.452;11.636;2023-05-31T07:14:36;96280.03;;;16.65;35.43
79285;BME280;68734;50.452;11.636;2023-05-31T07:17:01;96278.47;;;16.48;36.28
79285;BME280;68734;50.452;11.636;2023-05-31T07:19:28;96273.69;;;16.25;36.90
79285;BME280;68734;50.452;11.636;2023-05-31T07:21:54;96267.16;;;16.21;35.67
79285;BME280;68734;50.452;11.636;2023-05-31T07:24:19;96262.59;;;16.01;36.04
79285;BME280;68734;50.452;11.636;2023-05-31T07:26:47;96268.81;;;16.11;34.96
79285;BME280;68734;50.452;11.636;2023-05-31T07:29:12;96275.91;;;16.12;36.25
79285;BME280;68734;50.452;11.636;2023-05-31T07:31:38;96280.25;;;16.19;35.65
79285;BME280;68734;50.452;11.636;2023-05-31T07:34:03;96268.44;;;16.44;34.93
79285;BME280;68734;50.452;11.636;2023-05-31T07:36:29;96270.47;;;16.12;33.77
79285;BME280;68734;50.452;11.636;2023-05-31T07:38:55;96266.13;;;16.01;34.31
79285;BME280;68734;50.452;11.636;2023-05-31T07:41:20;96267.75;;;16.07;35.05
79285;BME280;68734;50.452;11.636;2023-05-31T07:43:46;96257.41;;;16.04;33.20
79285;BME280;68734;50.452;11.636;2023-05-31T07:46:16;96268.81;;;16.11;34.57
79285;BME280;68734;50.452;11.636;2023-05-31T07:48:43;96263.88;;;16.19;33.76
79285;BME280;68734;50.452;11.636;2023-05-31T07:51:09;96257.94;;;16.01;33.68
79285;BME280;68734;50.452;11.636;2023-05-31T07:53:34;96261.44;;;16.22;33.42
79285;BME280;68734;50.452;11.636;2023-05-31T07:56:02;96266.78;;;16.38;34.00
79285;BME280;68734;50.452;11.636;2023-05-31T07:58:27;96242.56;;;16.31;33.25
79285;BME280;68734;50.452;11.636;2023-05-31T08:00:55;96269.44;;;16.53;33.73
79285;BME280;68734;50.452;11.636;2023-05-31T08:03:20;96265.38;;;16.50;33.75
79285;BME280;68734;50.452;11.636;2023-05-31T08:05:46;96260.31;;;16.78;34.27
79285;BME280;68734;50.452;11.636;2023-05-31T08:08:14;96257.88;;;16.77;32.76
79285;BME280;68734;50.452;11.636;2023-05-31T08:10:40;96253.25;;;16.72;33.93
79285;BME280;68734;50.452;11.636;2023-05-31T08:13:05;96244.56;;;16.65;33.23
79285;BME280;68734;50.452;11.636;2023-05-31T08:15:34;96245.56;;;16.79;34.77
79285;BME280;68734;50.452;11.636;2023-05-31T08:17:59;96249.94;;;16.80;34.14
79285;BME280;68734;50.452;11.636;2023-05-31T08:20:25;96245.38;;;16.65;33.43
79285;BME280;68734;50.452;11.636;2023-05-31T08:22:51;96253.34;;;16.57;33.63
79285;BME280;68734;50.452;11.636;2023-05-31T08:25:20;96237.25;;;17.00;34.25
79285;BME280;68734;50.452;11.636;2023-05-31T08:27:48;96232.31;;;17.02;33.74
79285;BME280;68734;50.452;11.636;2023-05-31T08:30:13;96239.09;;;16.70;33.68
79285;BME280;68734;50.452;11.636;2023-05-31T08:32:39;96243.63;;;16.40;33.94
79285;BME280;68734;50.452;11.636;2023-05-31T08:35:08;96241.31;;;16.63;34.53
79285;BME280;68734;50.452;11.636;2023-05-31T08:37:38;96231.78;;;17.05;34.48
79285;BME280;68734;50.452;11.636;2023-05-31T08:40:04;96235.91;;;17.31;34.45
79285;BME280;68734;50.452;11.636;2023-05-31T08:45:04;96227.28;;;17.19;33.45
79285;BME280;68734;50.452;11.636;2023-05-31T08:47:43;96221.41;;;17.02;34.15
79285;BME280;68734;50.452;11.636;2023-05-31T08:50:10;96224.81;;;17.23;34.51
79285;BME280;68734;50.452;11.636;2023-05-31T08:52:36;96220.22;;;17.18;34.63
79285;BME280;68734;50.452;11.636;2023-05-31T08:55:03;96227.94;;;17.06;34.14
79285;BME280;68734;50.452;11.636;2023-05-31T08:57:30;96223.13;;;16.92;35.28
79285;BME280;68734;50.452;11.636;2023-05-31T08:59:57;96224.63;;;17.14;35.37
79285;BME280;68734;50.452;11.636;2023-05-31T09:02:26;96219.72;;;17.11;34.59
79285;BME280;68734;50.452;11.636;2023-05-31T09:04:55;96223.50;;;17.15;34.06
79285;BME280;68734;50.452;11.636;2023-05-31T09:07:21;96228.34;;;17.23;34.34
79285;BME280;68734;50.452;11.636;2023-05-31T09:09:49;96220.13;;;17.28;35.73
79285;BME280;68734;50.452;11.636;2023-05-31T09:12:14;96230.44;;;17.31;34.69
79285;BME280;68734;50.452;11.636;2023-05-31T09:14:40;96218.75;;;17.55;34.24
79285;BME280;68734;50.452;11.636;2023-05-31T09:17:06;96225.50;;;17.33;34.43
79285;BME280;68734;50.452;11.636;2023-05-31T09:19:31;96220.22;;;17.18;35.16
79285;BME280;68734;50.452;11.636;2023-05-31T09:21:57;96223.41;;;17.25;34.61
79285;BME280;68734;50.452;11.636;2023-05-31T09:24:22;96215.00;;;17.46;34.77
79285;BME280;68734;50.452;11.636;2023-05-31T09:26:49;96221.47;;;17.26;34.82
79285;BME280;68734;50.452;11.636;2023-05-31T09:29:16;96211.69;;;17.54;34.38
79285;BME280;68734;50.452;11.636;2023-05-31T09:31:43;96208.53;;;17.66;35.17
79285;BME280;68734;50.452;11.636;2023-05-31T09:34:25;96191.06;;;17.91;35.20
79285;BME280;68734;50.452;11.636;2023-05-31T09:36:51;96208.66;;;17.80;34.81
79285;BME280;68734;50.452;11.636;2023-05-31T09:39:19;96215.41;;;18.11;36.28
79285;BME280;68734;50.452;11.636;2023-05-31T09:41:51;96206.34;;;17.92;34.47
79285;BME280;68734;50.452;11.636;2023-05-31T09:44:17;96204.22;;;17.60;34.94
79285;BME280;68734;50.452;11.636;2023-05-31T09:46:45;96200.31;;;17.42;35.37
79285;BME280;68734;50.452;11.636;2023-05-31T09:49:11;96186.59;;;17.52;36.17
79285;BME280;68734;50.452;11.636;2023-05-31T09:51:37;96209.38;;;17.66;35.97
79285;BME280;68734;50.452;11.636;2023-05-31T09:54:10;96201.69;;;17.68;35.88
79285;BME280;68734;50.452;11.636;2023-05-31T09:56:37;96198.44;;;18.14;36.39
79285;BME280;68734;50.452;11.636;2023-05-31T09:59:03;96208.00;;;17.93;34.94
79285;BME280;68734;50.452;11.636;2023-05-31T10:01:29;96201.06;;;17.77;35.65
79285;BME280;68734;50.452;11.636;2023-05-31T10:03:56;96200.44;;;17.85;36.32
79285;BME280;68734;50.452;11.636;2023-05-31T10:06:25;96200.06;;;17.91;35.30
79285;BME280;68734;50.452;11.636;2023-05-31T10:08:50;96195.84;;;18.04;35.77
79285;BME280;68734;50.452;11.636;2023-05-31T10:11:17;96190.16;;;18.20;35.15
79285;BME280;68734;50.452;11.636;2023-05-31T10:13:47;96193.69;;;18.01;35.11
79285;BME280;68734;50.452;11.636;2023-05-31T10:16:15;96190.91;;;18.06;35.02
79285;BME280;68734;50.452;11.636;2023-05-31T10:18:44;96193.41;;;18.22;35.29
79285;BME280;68734;50.452;11.636;2023-05-31T10:21:24;96187.59;;;18.66;36.73
79285;BME280;68734;50.452;11.636;2023-05-31T10:24:02;96192.09;;;18.57;34.23
79285;BME280;68734;50.452;11.636;2023-05-31T10:27:07;96169.47;;;18.51;35.07
79285;BME280;68734;50.452;11.636;2023-05-31T10:29:36;96173.50;;;18.40;35.23
79285;BME280;68734;50.452;11.636;2023-05-31T10:32:12;96180.94;;;18.72;35.55
79285;BME280;68734;50.452;11.636;2023-05-31T10:34:39;96173.34;;;18.88;35.44
79285;BME280;68734;50.452;11.636;2023-05-31T10:37:05;96173.59;;;19.06;34.64
79285;BME280;68734;50.452;11.636;2023-05-31T10:39:53;96165.50;;;18.82;34.33
79285;BME280;68734;50.452;11.636;2023-05-31T10:42:33;96177.63;;;18.57;35.55
79285;BME280;68734;50.452;11.636;2023-05-31T10:45:16;96166.53;;;18.48;35.33
79285;BME280;68734;50.452;11.636;2023-05-31T10:47:53;96171.41;;;18.51;35.12
79285;BME280;68734;50.452;11.636;2023-05-31T10:50:21;96166.75;;;18.70;35.59
79285;BME280;68734;50.452;11.636;2023-05-31T10:53:08;96163.13;;;18.75;34.82
79285;BME280;68734;50.452;11.636;2023-05-31T10:55:40;96160.19;;;18.52;34.76
79285;BME280;68734;50.452;11.636;2023-05-31T10:58:27;96131.09;;;18.76;35.40
79285;BME280;68734;50.452;11.636;2023-05-31T11:00:54;96147.19;;;18.96;35.29
79285;BME280;68734;50.452;11.636;2023-05-31T11:03:25;96166.53;;;18.67;34.31
79285;BME280;68734;50.452;11.636;2023-05-31T11:05:59;96156.31;;;18.91;34.54
79285;BME280;68734;50.452;11.636;2023-05-31T11:08:26;96141.16;;;19.13;35.58
79285;BME280;68734;50.452;11.636;2023-05-31T11:10:52;96148.84;;;18.97;34.14
79285;BME280;68734;50.452;11.636;2023-05-31T11:13:18;96139.25;;;18.81;34.33
79285;BME280;68734;50.452;11.636;2023-05-31T11:15:49;96131.69;;;18.91;34.99
79285;BME280;68734;50.452;11.636;2023-05-31T11:18:22;96138.88;;;18.87;34.61
79285;BME280;68734;50.452;11.636;2023-05-31T11:20:48;96140.78;;;19.33;34.38
79285;BME280;68734;50.452;11.636;2023-05-31T11:25:42;96144.81;;;19.22;33.15
79285;BME280;68734;50.452;11.636;2023-05-31T11:28:08;96150.81;;;19.24;34.89
79285;BME280;68734;50.452;11.636;2023-05-31T11:30:37;96145.88;;;19.26;33.18
79285;BME280;68734;50.452;11.636;2023-05-31T11:33:13;96134.91;;;19.26;33.54
79285;BME280;68734;50.452;11.636;2023-05-31T11:35:41;96143.22;;;19.21;34.00
79285;BME280;68734;50.452;11.636;2023-05-31T11:38:06;96144.53;;;19.38;33.80
79285;BME280;68734;50.452;11.636;2023-05-31T11:40:32;96141.72;;;19.29;33.87
79285;BME280;68734;50.452;11.636;2023-05-31T11:43:04;96148.09;;;19.38;34.08
79285;BME280;68734;50.452;11.636;2023-05-31T11:45:31;96129.34;;;19.45;33.18
79285;BME280;68734;50.452;11.636;2023-05-31T11:50:31;96131.03;;;19.27;33.53
79285;BME280;68734;50.452;11.636;2023-05-31T11:53:01;96129.56;;;19.49;33.62
79285;BME280;68734;50.452;11.636;2023-05-31T11:55:31;96117.03;;;19.15;33.11
79285;BME280;68734;50.452;11.636;2023-05-31T11:58:08;96117.69;;;19.53;33.42
79285;BME280;68734;50.452;11.636;2023-05-31T12:00:34;96115.03;;;19.35;33.14
79285;BME280;68734;50.452;11.636;2023-05-31T12:03:02;96117.47;;;19.64;33.53
79285;BME280;68734;50.452;11.636;2023-05-31T12:05:29;96118.50;;;19.82;34.30
79285;BME280;68734;50.452;11.636;2023-05-31T12:07:56;96105.53;;;19.73;34.41
79285;BME280;68734;50.452;11.636;2023-05-31T12:10:30;96109.03;;;19.46;35.32
79285;BME280;68734;50.452;11.636;2023-05-31T12:12:58;96105.44;;;19.79;35.99
79285;BME280;68734;50.452;11.636;2023-05-31T12:15:24;96113.41;;;19.61;34.06
79285;BME280;68734;50.452;11.636;2023-05-31T12:17:52;96095.47;;;19.55;33.76
79285;BME280;68734;50.452;11.636;2023-05-31T12:20:18;96096.88;;;19.39;32.61
79285;BME280;68734;50.452;11.636;2023-05-31T12:22:43;96088.47;;;19.49;34.34
79285;BME280;68734;50.452;11.636;2023-05-31T12:25:11;96079.75;;;19.61;35.27
79285;BME280;68734;50.452;11.636;2023-05-31T12:27:37;96091.28;;;19.99;32.72
79285;BME280;68734;50.452;11.636;2023-05-31T12:30:03;96092.63;;;19.88;32.56
79285;BME280;68734;50.452;11.636;2023-05-31T12:32:28;96071.81;;;19.59;32.51
79285;BME280;68734;50.452;11.636;2023-05-31T12:35:05;96075.47;;;19.82;34.03
79285;BME280;68734;50.452;11.636;2023-05-31T12:37:38;96088.66;;;19.94;34.06
79285;BME280;68734;50.452;11.636;2023-05-31T12:40:13;96089.06;;;19.87;34.39
79285;BME280;68734;50.452;11.636;2023-05-31T12:42:40;96088.28;;;19.87;34.06
79285;BME280;68734;50.452;11.636;2023-05-31T12:45:08;96072.59;;;20.01;34.74
79285;BME280;68734;50.452;11.636;2023-05-31T12:47:35;96089.34;;;20.00;34.48
79285;BME280;68734;50.452;11.636;2023-05-31T12:50:02;96074.22;;;20.02;35.08
79285;BME280;68734;50.452;11.636;2023-05-31T12:52:32;96079.69;;;20.02;35.26
79285;BME280;68734;50.452;11.636;2023-05-31T12:54:58;96053.19;;;20.11;34.35
79285;BME280;68734;50.452;11.636;2023-05-31T12:57:28;96074.38;;;20.20;34.47
79285;BME280;68734;50.452;11.636;2023-05-31T13:00:00;96077.78;;;20.39;34.29
79285;BME280;68734;50.452;11.636;2023-05-31T13:02:27;96056.91;;;20.16;33.82
79285;BME280;68734;50.452;11.636;2023-05-31T13:04:52;96082.88;;;19.96;33.97
79285;BME280;68734;50.452;11.636;2023-05-31T13:07:20;96070.59;;;19.93;34.59
79285;BME280;68734;50.452;11.636;2023-05-31T13:09:45;96070.06;;;20.05;35.83
79285;BME280;68734;50.452;11.636;2023-05-31T13:12:11;96084.94;;;20.12;35.26